Johnstown, PA (15901)

05:26 PM EDT del 24 Agosto 2016 (GMT -0400)
Brownstown | | Change Station

Alt. 1516 ft 40.34 °N, 78.94 °W | Updated 8 seconds ago

Clear
Sereno
85.5 °F
Sembra 88 °F
N
2.2
Vento Variabile Vento da SSE
Gusts 3.2 mph

Oggi
Massima -- | Minima -- °F
--% Possibilità di precip.
Ieri
Massima -- | Minima -- °F
Precip. -- in
Pressione 30.18 in
Visibilità 10.0 miglia
Nuvole Sereno
Indice di calore 88 °F
Punto di rugiada 66 °F
Umidità 52%
Piovosità 0.00 in
Spessore del manto nevoso Non disponibile.
6:35 AM 7:59 PM
Gobba a levante, 53% visible
METAR KJST 242054Z AUTO 22007KT 10SM CLR 27/14 A3022 RMK AO2 SLP220 T02670144 57014
Pressione 30.18 in
Visibilità 10.0 miglia
Nuvole Sereno
Indice di calore 88 °F
Punto di rugiada 66 °F
Umidità 52%
Piovosità 0.00 in
Spessore del manto nevoso Non disponibile.
6:35 AM 7:59 PM
Gobba a levante, 53% visible
METAR KJST 242054Z AUTO 22007KT 10SM CLR 27/14 A3022 RMK AO2 SLP220 T02670144 57014

10-Day Weather Forecast

Almanac

Astronomia

Aug. 24, 2016 Alba Tramonto
Ora attuale
Crepuscolo civile
Crepuscolo nautico
Crepuscolo astronomico
Luna
Estensione della luce visibile
Lunghezza del giorno
Tomorrow will be .
, % of the Moon is Illuminated

Gli estremi di oggi

State Highs State Lows

Community

WunderPhotos

Upload Photos

1,934,719 foto caricate!

WunderBlog® & News

Nearby

Qualità dell'aria

  Qualità dell'aria Indice AQ Inquinante
Not available.

Profondità neve

Stazione Profondità Altitudine

Attività sismica

Città  Distanza Mag. Data & Ora
Minimo Magnitudo Mostrato è 2.5.

Temperature delle acque costiere

Località Temperatura

Stations

Stazioni meteo nelle vicinanze

Ubicazione della stazione Temp. Raffreddamento del vento Punto di rugiada Umidità Vento Precip. Alt. Aggiornato Tipo
                   

Watches & Warnings

There are currently no watches in effect.